地図

経路データ

SID SEASON NUMBER BASIN SUBBASIN NAME ISO_TIME NATURE LAT LON WMO_WIND WMO_PRES WMO_AGENCY TRACK_TYPE DIST2LAND LANDFALL IFLAG USA_AGENCY USA_ATCF_ID USA_LAT USA_LON USA_RECORD USA_STATUS USA_WIND USA_PRES USA_SSHS USA_R34_NE USA_R34_SE USA_R34_SW USA_R34_NW USA_R50_NE USA_R50_SE USA_R50_SW USA_R50_NW USA_R64_NE USA_R64_SE USA_R64_SW USA_R64_NW USA_POCI USA_ROCI USA_RMW USA_EYE TOKYO_LAT TOKYO_LON TOKYO_GRADE TOKYO_WIND TOKYO_PRES TOKYO_R50_DIR TOKYO_R50_LONG TOKYO_R50_SHORT TOKYO_R30_DIR TOKYO_R30_LONG TOKYO_R30_SHORT TOKYO_LAND CMA_LAT CMA_LON CMA_CAT CMA_WIND CMA_PRES HKO_LAT HKO_LON HKO_CAT HKO_WIND HKO_PRES NEWDELHI_LAT NEWDELHI_LON NEWDELHI_GRADE NEWDELHI_WIND NEWDELHI_PRES NEWDELHI_CI NEWDELHI_DP NEWDELHI_POCI REUNION_LAT REUNION_LON REUNION_TYPE REUNION_WIND REUNION_PRES REUNION_TNUM REUNION_CI REUNION_RMW REUNION_R34_NE REUNION_R34_SE REUNION_R34_SW REUNION_R34_NW REUNION_R50_NE REUNION_R50_SE REUNION_R50_SW REUNION_R50_NW REUNION_R64_NE REUNION_R64_SE REUNION_R64_SW REUNION_R64_NW BOM_LAT BOM_LON BOM_TYPE BOM_WIND BOM_PRES BOM_TNUM BOM_CI BOM_RMW BOM_R34_NE BOM_R34_SE BOM_R34_SW BOM_R34_NW BOM_R50_NE BOM_R50_SE BOM_R50_SW BOM_R50_NW BOM_R64_NE BOM_R64_SE BOM_R64_SW BOM_R64_NW BOM_ROCI BOM_POCI BOM_EYE BOM_POS_METHOD BOM_PRES_METHOD NADI_LAT NADI_LON NADI_CAT NADI_WIND NADI_PRES WELLINGTON_LAT WELLINGTON_LON WELLINGTON_WIND WELLINGTON_PRES DS824_LAT DS824_LON DS824_STAGE DS824_WIND DS824_PRES TD9636_LAT TD9636_LON TD9636_STAGE TD9636_WIND TD9636_PRES TD9635_LAT TD9635_LON TD9635_WIND TD9635_PRES TD9635_ROCI NEUMANN_LAT NEUMANN_LON NEUMANN_CLASS NEUMANN_WIND NEUMANN_PRES MLC_LAT MLC_LON MLC_CLASS MLC_WIND MLC_PRES USA_GUST BOM_GUST BOM_GUST_PER REUNION_GUST REUNION_GUST_PER USA_SEAHGT USA_SEARAD_NE USA_SEARAD_SE USA_SEARAD_SW USA_SEARAD_NW STORM_SPEED STORM_DIR
1948183N11145 1948 41 WP MM PEARL 1948-07-01 00:00:00 TS 11.3000 145.100 main 1510 1510 O________OOO__ jtwc_wp WP061948 11.3000 145.100 30 -1 11.3000 145.100 TC 30 11.3000 145.100 1 30 11.3000 145.100 30 1002 120 11 281
1948183N11145 1948 41 WP MM PEARL 1948-07-01 03:00:00 TS 11.4000 144.568 main 1528 1528 P________PPP__ WP061948 11.4275 144.600 32 -1 11.4275 144.600 TC 32 11.3176 144.470 1 31 11.4275 144.600 32 1001 150 11 278
1948183N11145 1948 41 WP MM PEARL 1948-07-01 06:00:00 TS 11.4619 143.955 main 1550 1550 O________OPO__ jtwc_wp WP061948 11.5000 144.000 35 0 11.5000 144.000 TC 35 11.3477 143.822 1 32 11.5000 144.000 35 1001 180 13 273
1948183N11145 1948 41 WP MM PEARL 1948-07-01 09:00:00 TS 11.4704 143.212 main 1568 1539 P________PPP__ WP061948 11.4926 143.237 35 0 11.4926 143.237 TC 35 11.4040 143.138 1 33 11.4926 143.237 35 1000 210 15 271
1948183N11145 1948 41 WP MM PEARL 1948-07-01 12:00:00 TS 11.5000 142.400 main 1539 1525 O________OOO__ jtwc_wp WP061948 11.5000 142.400 35 0 11.5000 142.400 TC 35 11.5000 142.400 2 35 11.5000 142.400 35 999 240 16 276
1948183N11145 1948 41 WP MM PEARL 1948-07-01 15:00:00 TS 11.6257 141.600 main 1525 1512 P________PPP__ WP061948 11.6198 141.600 35 0 11.6198 141.600 TC 35 11.6436 141.600 2 40 11.6198 141.600 35 997 270 16 281
1948183N11145 1948 41 WP MM PEARL 1948-07-01 18:00:00 TS 11.8052 140.793 main 1512 1500 O________OPO__ jtwc_wp WP061948 11.8000 140.800 35 0 11.8000 140.800 TC 35 11.8207 140.771 2 45 11.8000 140.800 35 996 300 16 283
1948183N11145 1948 41 WP MM PEARL 1948-07-01 21:00:00 TS 12.0031 139.967 main 1503 1460 P________PPP__ WP061948 12.0000 139.970 45 0 12.0000 139.970 TC 45 12.0124 139.956 2 50 12.0000 139.970 45 993 270 16 284
1948183N11145 1948 41 WP MM PEARL 1948-07-02 00:00:00 TS 12.2000 139.200 main 1460 1399 O________OOO__ jtwc_wp WP061948 12.2000 139.200 55 0 12.2000 139.200 TC 55 12.2000 139.200 2 55 12.2000 139.200 55 991 240 14 284
1948183N11145 1948 41 WP MM PEARL 1948-07-02 03:00:00 TS 12.3549 138.563 main 1401 1339 P________PPP__ WP061948 12.3572 138.562 60 0 12.3572 138.562 TC 60 12.3478 138.564 2 58 12.3572 138.562 60 988 240 12 284
1948183N11145 1948 41 WP MM PEARL 1948-07-02 06:00:00 TS 12.4977 137.997 main 1339 1286 O________OPO__ jtwc_wp WP061948 12.5000 138.000 65 1 12.5000 138.000 TC 65 12.4909 137.989 2 62 12.5000 138.000 65 985 240 11 285
1948183N11145 1948 41 WP MM PEARL 1948-07-02 09:00:00 TS 12.6414 137.449 main 1275 1225 P________PPP__ WP061948 12.6423 137.450 67 1 12.6423 137.450 TC 67 12.6386 137.445 2 66 12.6423 137.450 67 983 240 11 286
1948183N11145 1948 41 WP MM PEARL 1948-07-02 12:00:00 TS 12.8000 136.900 main 1225 1164 O________OOO__ jtwc_wp WP061948 12.8000 136.900 70 1 12.8000 136.900 TC 70 12.8000 136.900 3 70 12.8000 136.900 70 982 240 12 287
1948183N11145 1948 41 WP MM PEARL 1948-07-02 15:00:00 TS 12.9854 136.316 main 1164 1115 P________PPP__ WP061948 12.9924 136.307 70 1 12.9924 136.307 TC 70 12.9643 136.343 3 70 12.9924 136.307 70 981 210 12 289
1948183N11145 1948 41 WP MM PEARL 1948-07-02 18:00:00 TS 13.1865 135.718 main 1104 1056 O________OPO__ jtwc_wp WP061948 13.2000 135.700 70 1 13.2000 135.700 TC 70 13.1460 135.774 3 70 13.2000 135.700 70 981 180 12 289
1948183N11145 1948 41 WP MM PEARL 1948-07-02 21:00:00 TS 13.3885 135.122 main 1046 988 P________PPP__ WP061948 13.3998 135.107 70 1 13.3998 135.107 TC 70 13.3547 135.168 3 70 13.3998 135.107 70 981 210 13 289
1948183N11145 1948 41 WP MM PEARL 1948-07-03 00:00:00 TS 13.6000 134.500 main 988 928 O________OOO__ jtwc_wp WP061948 13.6000 134.500 70 1 13.6000 134.500 TC 70 13.6000 134.500 4 70 13.6000 134.500 70 981 240 13 288
1948183N11145 1948 41 WP MM PEARL 1948-07-03 03:00:00 TS 13.7826 133.864 main 928 858 P________PPP__ WP061948 13.7619 133.909 70 1 13.7619 133.909 TC 70 13.8449 133.727 4 70 13.7619 133.909 70 981 270 14 288
1948183N11145 1948 41 WP MM PEARL 1948-07-03 06:00:00 TS 14.0327 133.123 main 847 766 O________OPO__ jtwc_wp WP061948 14.0000 133.200 70 1 14.0000 133.200 TC 70 14.1307 132.893 4 70 14.0000 133.200 70 981 300 18 291
1948183N11145 1948 41 WP MM PEARL 1948-07-03 09:00:00 TS 14.4119 132.177 main 766 691 P________PPP__ WP061948 14.3905 132.223 70 1 14.3905 132.223 TC 70 14.4760 132.038 4 70 14.3905 132.223 70 980 300 21 295
1948183N11145 1948 41 WP MM PEARL 1948-07-03 12:00:00 TS 14.9000 131.200 main 686 639 O________OOO__ jtwc_wp WP061948 14.9000 131.200 70 1 14.9000 131.200 TC 70 14.9000 131.200 4 70 14.9000 131.200 70 980 300 20 301
1948183N11145 1948 41 WP MM PEARL 1948-07-03 15:00:00 TS 15.4650 130.364 main 645 606 P________PPP__ WP061948 15.4770 130.355 75 1 15.4770 130.355 TC 75 15.4287 130.393 4 75 15.4770 130.355 75 975 300 19 308
1948183N11145 1948 41 WP MM PEARL 1948-07-03 18:00:00 TS 16.0831 129.603 main 610 569 O________OPO__ jtwc_wp WP061948 16.1000 129.600 80 1 16.1000 129.600 TC 80 16.0323 129.611 4 80 16.1000 129.600 80 971 300 19 310
1948183N11145 1948 41 WP MM PEARL 1948-07-03 21:00:00 TS 16.7036 128.854 main 575 557 P________PPP__ WP061948 16.7149 128.847 85 2 16.7149 128.847 TC 85 16.6697 128.874 4 85 16.7149 128.847 85 968 330 18 312
1948183N11145 1948 41 WP MM PEARL 1948-07-04 00:00:00 TS 17.3000 128.200 main 557 549 O________OOO__ jtwc_wp WP061948 17.3000 128.200 90 2 17.3000 128.200 TC 90 17.3000 128.200 4 90 17.3000 128.200 90 966 360 16 315
1948183N11145 1948 41 WP MM PEARL 1948-07-04 03:00:00 TS 17.8153 127.702 main 559 526 P________PPP__ WP061948 17.7994 127.734 90 2 17.7994 127.734 TC 90 17.8629 127.604 4 90 17.7994 127.734 90 965 330 14 318
1948183N11145 1948 41 WP MM PEARL 1948-07-04 06:00:00 TS 18.3283 127.243 main 517 466 O________OPO__ jtwc_wp WP061948 18.3000 127.300 90 2 18.3000 127.300 TC 90 18.4132 127.073 4 90 18.3000 127.300 90 964 300 15 319
1948183N11145 1948 41 WP MM PEARL 1948-07-04 09:00:00 TS 18.9200 126.676 main 466 418 P________PPP__ WP061948 18.9076 126.708 90 2 18.9076 126.708 TC 90 18.9569 126.579 4 90 18.9076 126.708 90 963 300 16 317
1948183N11145 1948 41 WP MM PEARL 1948-07-04 12:00:00 TS 19.5000 126.100 main 418 385 O________OOO__ jtwc_wp WP061948 19.5000 126.100 90 2 19.5000 126.100 TC 90 19.5000 126.100 4 90 19.5000 126.100 90 963 300 15 316
1948183N11145 1948 41 WP MM PEARL 1948-07-04 15:00:00 TS 19.9712 125.580 main 390 369 P________PPP__ WP061948 19.9422 125.584 90 2 19.9422 125.584 TC 90 20.0580 125.568 4 90 19.9422 125.584 90 962 330 14 315
1948183N11145 1948 41 WP MM PEARL 1948-07-04 18:00:00 TS 20.4537 125.087 main 375 367 O________OPO__ jtwc_wp WP061948 20.4000 125.100 90 2 20.4000 125.100 TC 90 20.6149 125.047 4 90 20.4000 125.100 90 961 360 14 320
1948183N11145 1948 41 WP MM PEARL 1948-07-04 21:00:00 TS 21.0673 124.583 main 386 318 P________PPP__ WP061948 21.0349 124.593 90 2 21.0349 124.593 TC 90 21.1644 124.553 4 90 21.0349 124.593 90 960 330 16 324
1948183N11145 1948 41 WP MM PEARL 1948-07-05 00:00:00 TS 21.7000 124.100 main 318 256 O________OOO__ jtwc_wp WP061948 21.7000 124.100 90 2 21.7000 124.100 TC 90 21.7000 124.100 4 90 21.7000 124.100 90 960 300 15 323
1948183N11145 1948 41 WP MM PEARL 1948-07-05 03:00:00 TS 22.2512 123.635 main 242 199 P________PPP__ WP061948 22.2800 123.612 87 2 22.2800 123.612 TC 87 22.1649 123.704 4 88 22.2800 123.612 87 960 330 13 323
1948183N11145 1948 41 WP MM PEARL 1948-07-05 06:00:00 TS 22.7560 123.238 main 187 162 O________OPO__ jtwc_wp WP061948 22.8000 123.200 85 2 22.8000 123.200 TC 85 22.6241 123.351 4 87 22.8000 123.200 85 961 360 12 327
1948183N11145 1948 41 WP MM PEARL 1948-07-05 09:00:00 TS 23.2176 122.956 main 162 120 P________PPP__ WP061948 23.2497 122.934 85 2 23.2497 122.934 TC 85 23.1213 123.023 4 86 23.2497 122.934 85 961 330 11 332
1948183N11145 1948 41 WP MM PEARL 1948-07-05 12:00:00 TS 23.7000 122.700 main 120 60 O________OOO__ jtwc_wp WP061948 23.7000 122.700 85 2 23.7000 122.700 TC 85 23.7000 122.700 4 85 23.7000 122.700 85 961 300 11 330
1948183N11145 1948 41 WP MM PEARL 1948-07-05 15:00:00 TS 24.2065 122.338 main 52 20 P________PPP__ WP061948 24.1601 122.364 85 2 24.1601 122.364 TC 85 24.3457 122.261 4 85 24.1601 122.364 85 961 270 14 330
1948183N11145 1948 41 WP MM PEARL 1948-07-05 18:00:00 TS 24.8710 121.959 main 11 0 O________OPO__ jtwc_wp WP061948 24.8000 122.000 85 2 24.8000 122.000 TC 85 25.0840 121.835 4 85 24.8000 122.000 85 961 240 17 336
1948183N11145 1948 41 WP MM PEARL 1948-07-05 21:00:00 TS 25.7915 121.566 main 67 67 P________PPP__ WP061948 25.7453 121.592 85 2 25.7453 121.592 TC 85 25.9300 121.491 4 85 25.7453 121.592 85 961 240 21 344
1948183N11145 1948 41 WP MM PEARL 1948-07-06 00:00:00 TS 26.9000 121.300 main 85 11 O________OOO__ jtwc_wp WP061948 26.9000 121.300 85 2 26.9000 121.300 TC 85 26.9000 121.300 4 85 26.9000 121.300 85 961 240 23 353
1948183N11145 1948 41 WP MM PEARL 1948-07-06 03:00:00 TS 28.1121 121.257 main 0 0 P________PPP__ WP061948 28.1272 121.238 85 2 28.1272 121.238 TC 85 28.0668 121.315 4 82 28.1272 121.238 85 961 240 25 3
1948183N11145 1948 41 WP MM PEARL 1948-07-06 06:00:00 TS 29.3854 121.424 main 0 0 O________OPO__ jtwc_wp WP061948 29.4000 121.400 85 2 29.4000 121.400 TC 85 29.3416 121.497 4 80 29.4000 121.400 85 962 240 26 10
1948183N11145 1948 41 WP MM PEARL 1948-07-06 09:00:00 TS 30.6613 121.750 main 22 0 P________PPP__ WP061948 30.6750 121.731 80 1 30.6750 121.731 TC 80 30.6205 121.807 4 77 30.6750 121.731 80 962 270 25 15
1948183N11145 1948 41 WP MM PEARL 1948-07-06 12:00:00 TS 31.8000 122.200 main 30 30 O________OOO__ jtwc_wp WP061948 31.8000 122.200 75 1 31.8000 122.200 TC 75 31.8000 122.200 4 75 31.8000 122.200 75 963 300 21 22
1948183N11145 1948 41 WP MM PEARL 1948-07-06 15:00:00 TS 32.6351 122.667 main 115 115 P________PPP__ WP061948 32.5950 122.694 72 1 32.5950 122.694 TC 72 32.7556 122.584 4 71 32.5950 122.694 72 965 300 18 27
1948183N11145 1948 41 WP MM PEARL 1948-07-06 18:00:00 TS 33.3747 123.160 main 201 201 O________OPO__ jtwc_wp WP061948 33.3000 123.200 70 1 33.3000 123.200 TC 70 33.5990 123.040 4 67 33.3000 123.200 70 967 300 18 26
1948183N11145 1948 41 WP MM PEARL 1948-07-06 21:00:00 TS 34.2360 123.615 main 251 190 P________PPP__ WP061948 34.1920 123.636 65 1 34.1920 123.636 TC 65 34.3679 123.551 4 63 34.1920 123.636 65 969 300 19 24
1948183N11145 1948 41 WP MM PEARL 1948-07-07 00:00:00 TS 35.1000 124.100 main 190 161 O________OOO__ jtwc_wp WP061948 35.1000 124.100 60 0 35.1000 124.100 TC 60 35.1000 124.100 2 60 35.1000 124.100 60 971 300 19 27
1948183N11145 1948 41 WP MM PEARL 1948-07-07 03:00:00 TS 35.9097 124.677 main 153 72 P________PPP__ WP061948 35.9375 124.678 55 0 35.9375 124.678 TC 55 35.8265 124.673 2 57 35.9375 124.678 55 973 300 18 32
1948183N11145 1948 41 WP MM PEARL 1948-07-07 06:00:00 TS 36.6684 125.293 main 71 47 O________OPO__ jtwc_wp WP061948 36.7000 125.300 50 0 36.7000 125.300 TC 50 36.5527 125.266 2 55 36.7000 125.300 50 975 300 17 36
1948183N11145 1948 41 WP MM PEARL 1948-07-07 09:00:00 TS 37.3225 125.942 main 47 0 P________PPP__ WP061948 37.3204 125.968 50 0 37.3204 125.968 TC 50 37.2776 125.875 2 52 37.3754 125.906 50 977 300 16 36
1948183N11145 1948 41 WP MM PEARL 1948-07-07 12:00:00 TS 38.0000 126.500 main 0 0 O________OOO__ jtwc_wp WP061948 38.0000 126.500 50 0 38.0000 126.500 TC 50 38.0000 126.500 2 50 38.0000 126.500 50 979 300 17 20
1948183N11145 1948 41 WP MM PEARL 1948-07-07 15:00:00 TS 38.9470 126.713 main 0 0 P________P____ WP061948 38.9470 126.713 45 0 38.9470 126.713 TC 45 2 20 7
1948183N11145 1948 41 WP MM PEARL 1948-07-07 18:00:00 TS 40.0000 126.800 main 0 0 O________O____ jtwc_wp WP061948 40.0000 126.800 40 0 40.0000 126.800 TC 40 2 21 5
1948183N11145 1948 41 WP MM PEARL 1948-07-07 21:00:00 TS 41.0747 126.963 main 0 0 P________P____ WP061948 41.0747 126.963 37 0 41.0747 126.963 TC 37 2 20 9
1948183N11145 1948 41 WP MM PEARL 1948-07-08 00:00:00 TS 42.0000 127.200 main 0 0 O________O____ jtwc_wp WP061948 42.0000 127.200 35 0 42.0000 127.200 TC 35 16 16
1948183N11145 1948 41 WP MM PEARL 1948-07-08 03:00:00 TS 42.6005 127.562 main 0 0 P________P____ WP061948 42.6005 127.562 32 -1 42.6005 127.562 TC 32 12 31
1948183N11145 1948 41 WP MM PEARL 1948-07-08 06:00:00 TS 43.0000 128.000 main 0 O________O____ jtwc_wp WP061948 43.0000 128.000 30 -1 43.0000 128.000 TC 30 10 39

デジタル台風データ・検索

IBTrACS Databaseについて

本データベースは、米国NOAAが公開する1842年以降の世界の熱帯低気圧のベストトラックデータアーカイブInternational Best Track Archive for Climate Stewardship (IBTrACS)を、ウェブで閲覧しやすい形式に変換したものです。

最終更新日:2021-11-26